createdAt,value
2022-11-24T00:01:04.847Z,90.60
2022-11-24T00:03:32.175Z,90.40
2022-11-24T00:06:07.808Z,90.50
2022-11-24T00:08:36.192Z,90.70
2022-11-24T00:11:08.620Z,91.00
2022-11-24T00:13:39.102Z,91.00
2022-11-24T00:16:16.864Z,91.00
2022-11-24T00:18:46.762Z,91.00
2022-11-24T00:21:15.991Z,91.30
2022-11-24T00:23:43.293Z,91.60
2022-11-24T00:26:13.757Z,91.80
2022-11-24T00:28:42.318Z,91.70
2022-11-24T00:31:17.150Z,91.60
2022-11-24T00:33:46.261Z,91.60
2022-11-24T00:36:14.154Z,91.60
2022-11-24T00:38:41.267Z,91.60
2022-11-24T00:41:08.565Z,91.50
2022-11-24T00:43:35.918Z,91.50
2022-11-24T00:46:03.538Z,91.80
2022-11-24T00:48:31.280Z,91.80
2022-11-24T00:51:04.404Z,91.70
2022-11-24T00:53:31.972Z,91.70
2022-11-24T00:55:59.341Z,91.70
2022-11-24T00:58:26.654Z,91.60
2022-11-24T01:00:53.891Z,91.50
2022-11-24T01:03:22.175Z,91.40
2022-11-24T01:05:49.277Z,91.50
2022-11-24T01:08:16.745Z,91.50
2022-11-24T01:10:44.142Z,91.30
2022-11-24T01:13:12.615Z,91.50
2022-11-24T01:15:40.191Z,91.40
2022-11-24T01:18:07.336Z,91.10
2022-11-24T01:20:36.721Z,91.40
2022-11-24T01:23:05.467Z,91.10
2022-11-24T01:25:32.816Z,91.20
2022-11-24T01:27:59.906Z,91.00
2022-11-24T01:30:27.032Z,91.00
2022-11-24T01:32:54.070Z,91.20
2022-11-24T01:35:21.328Z,91.00
2022-11-24T01:37:48.655Z,91.10
2022-11-24T01:40:16.112Z,91.30
2022-11-24T01:42:48.462Z,91.20
2022-11-24T01:45:40.635Z,91.40
2022-11-24T01:48:25.864Z,91.30
2022-11-24T01:51:10.683Z,91.40
2022-11-24T01:53:39.722Z,91.50
2022-11-24T01:56:07.576Z,91.20
2022-11-24T01:58:36.226Z,91.20
2022-11-24T02:01:03.500Z,90.90
2022-11-24T02:03:35.673Z,90.90
2022-11-24T02:06:06.900Z,90.70
2022-11-24T02:08:51.325Z,90.70
2022-11-24T02:11:21.111Z,91.30
2022-11-24T02:13:49.805Z,90.80
2022-11-24T02:16:16.926Z,90.90
2022-11-24T02:18:44.528Z,90.70
2022-11-24T02:21:14.754Z,90.60
2022-11-24T02:23:41.918Z,90.70
2022-11-24T02:26:19.306Z,90.80
2022-11-24T02:28:47.210Z,90.60
2022-11-24T02:31:14.348Z,90.90
2022-11-24T02:33:41.574Z,90.80
2022-11-24T02:36:08.953Z,90.90
2022-11-24T02:38:36.489Z,90.80
2022-11-24T02:41:07.551Z,90.90
2022-11-24T02:43:49.499Z,90.80
2022-11-24T02:46:16.755Z,90.90
2022-11-24T02:48:44.138Z,90.90
2022-11-24T02:51:11.527Z,90.90
2022-11-24T02:53:38.686Z,90.90
2022-11-24T02:56:06.049Z,91.00
2022-11-24T02:58:33.434Z,91.00
2022-11-24T03:01:00.893Z,91.00
2022-11-24T03:03:28.206Z,91.10
2022-11-24T03:05:55.324Z,91.10
2022-11-24T03:08:22.421Z,91.20
2022-11-24T03:10:49.549Z,91.20
2022-11-24T03:13:16.639Z,91.30
2022-11-24T03:15:43.877Z,91.30
2022-11-24T03:18:10.966Z,91.50
2022-11-24T03:20:38.503Z,91.50
2022-11-24T03:23:05.814Z,91.50
2022-11-24T03:25:32.935Z,91.50
2022-11-24T03:28:00.067Z,91.50
2022-11-24T03:30:27.330Z,91.50
2022-11-24T03:32:54.616Z,91.50
2022-11-24T03:35:22.459Z,91.40
2022-11-24T03:37:49.682Z,91.40
2022-11-24T03:40:18.233Z,91.30
2022-11-24T03:42:45.521Z,91.20
2022-11-24T03:45:37.841Z,91.40
2022-11-24T03:47:59.994Z,91.70
2022-11-24T03:50:27.216Z,91.40
2022-11-24T03:52:54.277Z,91.40
2022-11-24T03:55:21.330Z,91.40
2022-11-24T03:57:48.516Z,91.50
2022-11-24T04:00:16.425Z,91.60
2022-11-24T04:02:43.549Z,91.70
2022-11-24T04:05:11.755Z,91.70
2022-11-24T04:07:38.985Z,91.80
2022-11-24T04:10:06.955Z,91.90
2022-11-24T04:12:46.384Z,92.20
2022-11-24T04:15:20.750Z,92.40
2022-11-24T04:17:50.530Z,92.50
2022-11-24T04:20:18.152Z,92.40
2022-11-24T04:22:45.454Z,92.60
2022-11-24T04:25:13.065Z,92.50
2022-11-24T04:27:40.258Z,92.50
2022-11-24T04:30:08.197Z,92.50
2022-11-24T04:32:36.361Z,93.00
2022-11-24T04:35:04.553Z,93.00
2022-11-24T04:37:31.621Z,92.90
2022-11-24T04:39:59.027Z,93.00
2022-11-24T04:42:26.293Z,93.60
2022-11-24T04:44:55.385Z,93.40
2022-11-24T04:47:25.408Z,93.30
2022-11-24T04:49:53.035Z,93.30
2022-11-24T04:52:21.777Z,93.30
2022-11-24T04:54:50.039Z,93.50
2022-11-24T04:57:26.014Z,93.60
2022-11-24T04:59:54.152Z,93.60
2022-11-24T05:02:22.269Z,93.50
2022-11-24T05:04:49.876Z,93.50
2022-11-24T05:07:19.447Z,93.30
2022-11-24T05:10:06.275Z,93.30
2022-11-24T05:12:33.843Z,93.30
2022-11-24T05:15:02.628Z,93.30
2022-11-24T05:17:36.790Z,93.30
2022-11-24T05:20:06.091Z,93.30
2022-11-24T05:22:33.510Z,93.50
2022-11-24T05:25:00.867Z,93.80
2022-11-24T05:27:27.973Z,93.80
2022-11-24T05:29:56.004Z,93.80
2022-11-24T05:32:23.414Z,93.70
2022-11-24T05:34:50.705Z,94.00
2022-11-24T05:37:17.941Z,94.00
2022-11-24T05:39:45.521Z,94.30
2022-11-24T05:42:31.587Z,94.40
2022-11-24T05:44:59.691Z,94.40
2022-11-24T05:47:26.946Z,95.00
2022-11-24T05:49:54.093Z,94.50
2022-11-24T05:52:21.187Z,94.60
2022-11-24T05:54:48.575Z,94.70
2022-11-24T05:57:17.552Z,94.90
2022-11-24T05:59:44.887Z,94.80
2022-11-24T06:02:12.164Z,94.60
2022-11-24T06:04:39.428Z,94.60
2022-11-24T06:07:12.006Z,94.90
2022-11-24T06:09:40.521Z,94.80
2022-11-24T06:12:08.785Z,94.90
2022-11-24T06:14:36.841Z,94.90
2022-11-24T06:17:05.325Z,95.00
2022-11-24T06:19:32.845Z,95.60
2022-11-24T06:22:00.090Z,95.30
2022-11-24T06:24:27.419Z,95.20
2022-11-24T06:26:54.743Z,95.70
2022-11-24T06:29:21.914Z,95.80
2022-11-24T06:31:49.147Z,95.90
2022-11-24T06:34:16.305Z,95.80
2022-11-24T06:36:43.376Z,95.90
2022-11-24T06:39:10.708Z,96.20
2022-11-24T06:41:37.855Z,96.20
2022-11-24T06:44:05.692Z,96.30
2022-11-24T06:46:32.955Z,96.40
2022-11-24T06:49:00.693Z,96.30
2022-11-24T06:51:28.395Z,96.20
2022-11-24T06:53:55.666Z,96.20
2022-11-24T06:56:23.231Z,96.10
2022-11-24T06:58:52.137Z,96.20
2022-11-24T07:01:24.492Z,96.30
2022-11-24T07:03:53.246Z,96.30
2022-11-24T07:06:22.189Z,96.50
2022-11-24T07:08:50.965Z,96.60
2022-11-24T07:11:22.426Z,96.50
2022-11-24T07:13:55.104Z,96.50
2022-11-24T07:16:26.200Z,96.30
2022-11-24T07:18:54.182Z,96.20
2022-11-24T07:21:22.798Z,96.30
2022-11-24T07:23:51.961Z,96.20
2022-11-24T07:26:19.461Z,96.20
2022-11-24T07:28:47.122Z,96.00
2022-11-24T07:31:17.296Z,96.20
2022-11-24T07:33:48.765Z,95.80
2022-11-24T07:36:16.098Z,96.00
2022-11-24T07:38:43.669Z,95.70
2022-11-24T07:41:12.816Z,95.70
2022-11-24T07:43:40.832Z,95.40
2022-11-24T07:46:11.758Z,95.60
2022-11-24T07:48:39.174Z,95.20
2022-11-24T07:51:07.241Z,95.30
2022-11-24T07:53:34.532Z,95.50
2022-11-24T07:56:05.007Z,94.90
2022-11-24T07:58:34.999Z,94.70
2022-11-24T08:01:14.258Z,94.50
2022-11-24T08:03:42.771Z,94.70
2022-11-24T08:06:29.997Z,94.80
2022-11-24T08:09:00.816Z,94.00
2022-11-24T08:11:29.135Z,94.60
2022-11-24T08:13:56.349Z,94.70
2022-11-24T08:16:24.667Z,94.10
2022-11-24T08:18:54.502Z,94.30
2022-11-24T08:21:23.842Z,93.40
2022-11-24T08:23:57.145Z,93.40
2022-11-24T08:26:25.565Z,93.10
2022-11-24T08:28:57.879Z,93.50
2022-11-24T08:31:33.166Z,93.70
2022-11-24T08:34:05.513Z,93.20
2022-11-24T08:36:33.301Z,92.60
2022-11-24T08:39:00.850Z,92.70
2022-11-24T08:41:29.532Z,93.20
2022-11-24T08:43:56.747Z,92.30
2022-11-24T08:46:24.220Z,92.00
2022-11-24T08:48:54.845Z,92.10
2022-11-24T08:51:26.092Z,91.80
2022-11-24T08:53:58.787Z,90.90
2022-11-24T08:56:27.236Z,90.90
2022-11-24T08:58:55.715Z,91.30
2022-11-24T09:01:26.809Z,90.70
2022-11-24T09:03:57.088Z,90.50
2022-11-24T09:06:27.756Z,90.20
2022-11-24T09:08:57.857Z,90.70
2022-11-24T09:11:27.339Z,90.30
2022-11-24T09:13:55.345Z,90.00
2022-11-24T09:16:28.492Z,90.30
2022-11-24T09:19:06.904Z,88.50
2022-11-24T09:21:39.962Z,89.70
2022-11-24T09:24:09.615Z,87.20
2022-11-24T09:26:46.184Z,85.20
2022-11-24T09:29:16.022Z,88.70
2022-11-24T09:31:43.564Z,86.00
2022-11-24T09:34:15.594Z,84.80
2022-11-24T09:36:43.402Z,85.90
2022-11-24T09:39:11.472Z,81.50
2022-11-24T09:42:03.514Z,82.20
2022-11-24T09:44:52.646Z,83.20
2022-11-24T09:47:35.212Z,82.10
2022-11-24T09:50:10.266Z,81.40
2022-11-24T09:52:59.334Z,83.50
2022-11-24T09:55:47.442Z,80.80
2022-11-24T09:58:24.072Z,81.80
2022-11-24T10:00:53.966Z,80.40
2022-11-24T10:03:37.381Z,81.00
2022-11-24T10:06:31.601Z,78.90
2022-11-24T10:09:53.188Z,79.20
2022-11-24T10:13:17.439Z,79.20
2022-11-24T10:16:09.333Z,79.40
2022-11-24T10:18:55.838Z,79.00
2022-11-24T10:21:54.091Z,79.60
2022-11-24T10:24:40.476Z,79.30
2022-11-24T10:27:20.435Z,79.70
2022-11-24T10:29:51.793Z,79.30
2022-11-24T10:32:22.508Z,80.50
2022-11-24T10:34:50.701Z,80.20
2022-11-24T10:37:28.640Z,80.20
2022-11-24T10:40:26.982Z,81.40
2022-11-24T10:42:58.696Z,81.40
2022-11-24T10:45:28.071Z,81.70
2022-11-24T10:47:55.762Z,81.80
2022-11-24T10:50:26.478Z,81.60
2022-11-24T10:53:13.858Z,81.30
2022-11-24T10:55:56.335Z,81.10
2022-11-24T10:58:24.963Z,80.80
2022-11-24T11:00:52.320Z,81.00
2022-11-24T11:03:24.763Z,80.60
2022-11-24T11:06:11.286Z,81.10
2022-11-24T11:08:38.470Z,81.80
2022-11-24T11:11:21.154Z,81.20
2022-11-24T11:14:03.574Z,81.90
2022-11-24T11:16:34.032Z,81.50
2022-11-24T11:19:15.696Z,81.20
2022-11-24T11:22:00.177Z,81.10
2022-11-24T11:24:28.551Z,81.60
2022-11-24T11:27:04.617Z,81.70
2022-11-24T11:35:13.209Z,81.40
2022-11-24T11:37:40.585Z,81.50
2022-11-24T11:40:16.334Z,81.80
2022-11-24T11:43:05.774Z,82.30
2022-11-24T11:45:38.370Z,82.00
2022-11-24T11:48:35.090Z,81.80
2022-11-24T11:51:30.001Z,81.30
2022-11-24T11:54:09.450Z,80.80
2022-11-24T11:56:44.449Z,80.20
2022-11-24T11:59:27.044Z,81.40
2022-11-24T12:01:59.913Z,81.70
2022-11-24T12:04:26.949Z,81.50
2022-11-24T12:07:06.307Z,81.20
2022-11-24T12:09:57.151Z,81.40
2022-11-24T12:12:48.648Z,82.10
2022-11-24T12:15:21.753Z,81.90
2022-11-24T12:18:03.199Z,81.20
2022-11-24T12:20:47.921Z,81.00
2022-11-24T12:23:42.678Z,81.70
2022-11-24T12:26:20.468Z,81.50
2022-11-24T12:29:02.810Z,81.20
2022-11-24T12:32:00.473Z,81.60
2022-11-24T12:34:44.205Z,81.00
2022-11-24T12:37:25.075Z,81.50
2022-11-24T12:40:12.067Z,81.60
2022-11-24T12:42:48.211Z,82.10
2022-11-24T12:45:18.690Z,82.40
2022-11-24T12:48:08.710Z,82.80
2022-11-24T12:50:39.256Z,83.00
2022-11-24T12:53:14.582Z,82.80
2022-11-24T12:55:43.766Z,83.30
2022-11-24T12:58:26.132Z,83.60
2022-11-24T13:00:58.669Z,83.80
2022-11-24T13:03:34.723Z,83.50
2022-11-24T13:06:37.084Z,83.80
2022-11-24T13:09:12.181Z,83.30
2022-11-24T13:11:40.647Z,83.60
2022-11-24T13:14:15.856Z,84.10
2022-11-24T13:17:21.755Z,84.20
2022-11-24T13:19:39.989Z,84.10
2022-11-24T13:22:07.137Z,84.30
2022-11-24T13:24:37.005Z,84.20
2022-11-24T13:27:13.554Z,84.50
2022-11-24T13:29:45.564Z,84.40
2022-11-24T13:32:12.693Z,84.40
2022-11-24T13:34:40.013Z,84.60
2022-11-24T13:37:31.116Z,84.80
2022-11-24T13:40:12.189Z,84.60
2022-11-24T13:42:54.548Z,84.50
2022-11-24T13:45:40.643Z,84.60
2022-11-24T13:48:28.267Z,84.70
2022-11-24T13:50:58.381Z,84.90
2022-11-24T13:53:40.461Z,85.00
2022-11-24T13:56:13.940Z,85.20
2022-11-24T13:58:49.646Z,85.20
2022-11-24T14:01:25.599Z,85.20
2022-11-24T14:07:07.425Z,85.10
2022-11-24T14:09:48.361Z,85.40
2022-11-24T14:12:20.859Z,85.20
2022-11-24T14:14:50.511Z,85.30
2022-11-24T14:17:25.871Z,85.30
2022-11-24T14:19:57.718Z,85.50
2022-11-24T14:22:31.776Z,85.70
2022-11-24T14:25:01.029Z,85.70
2022-11-24T14:27:31.295Z,85.80
2022-11-24T14:30:01.807Z,86.00
2022-11-24T14:32:29.180Z,86.10
2022-11-24T14:34:57.181Z,85.80
2022-11-24T14:37:24.544Z,86.10
2022-11-24T14:39:53.273Z,85.80
2022-11-24T14:42:24.188Z,86.10
2022-11-24T14:45:00.122Z,86.00
2022-11-24T14:47:31.683Z,86.10
2022-11-24T14:50:15.307Z,86.30
2022-11-24T14:52:55.443Z,86.40
2022-11-24T14:55:32.387Z,86.60
2022-11-24T14:58:00.030Z,86.70
2022-11-24T15:00:31.080Z,87.00
2022-11-24T15:03:01.355Z,86.90
2022-11-24T15:05:52.387Z,87.20
2022-11-24T15:08:19.892Z,87.30
2022-11-24T15:10:47.451Z,87.30
2022-11-24T15:13:21.649Z,87.60
2022-11-24T15:15:57.593Z,87.80
2022-11-24T15:18:46.215Z,87.70
2022-11-24T15:21:18.861Z,87.60
2022-11-24T15:24:16.019Z,87.80
2022-11-24T15:26:44.096Z,87.80
2022-11-24T15:29:12.567Z,88.00
2022-11-24T15:31:41.423Z,88.20
2022-11-24T15:34:13.724Z,88.10
2022-11-24T15:36:40.982Z,88.10
2022-11-24T15:39:08.446Z,88.40
2022-11-24T15:41:35.706Z,88.80
2022-11-24T15:44:03.078Z,88.90
2022-11-24T15:46:37.963Z,89.50
2022-11-24T15:49:05.812Z,88.80
2022-11-24T15:51:33.311Z,89.00
2022-11-24T15:54:01.540Z,89.20
2022-11-24T15:56:32.670Z,89.20
2022-11-24T15:59:01.070Z,89.40
2022-11-24T16:01:31.819Z,89.80
2022-11-24T16:03:59.150Z,90.10
2022-11-24T16:06:26.515Z,90.10
2022-11-24T16:08:54.308Z,90.20
2022-11-24T16:11:22.527Z,90.30
2022-11-24T16:13:53.481Z,90.20
2022-11-24T16:16:23.161Z,90.20
2022-11-24T16:18:50.742Z,90.10
2022-11-24T16:21:18.168Z,90.00
2022-11-24T16:23:47.739Z,90.00
2022-11-24T16:26:14.892Z,90.60
2022-11-24T16:28:42.912Z,90.60
2022-11-24T16:31:10.195Z,90.50
2022-11-24T16:33:40.820Z,90.60
2022-11-24T16:36:08.520Z,90.40
2022-11-24T16:38:35.814Z,90.70
2022-11-24T16:41:02.932Z,90.80
2022-11-24T16:43:30.200Z,90.80
2022-11-24T16:46:19.457Z,91.00
2022-11-24T16:48:48.316Z,91.00
2022-11-24T16:51:16.400Z,91.00
2022-11-24T16:53:43.912Z,90.90
2022-11-24T16:56:11.624Z,90.90
2022-11-24T16:58:40.464Z,91.00
2022-11-24T17:01:10.591Z,91.90
2022-11-24T17:03:38.650Z,91.80
2022-11-24T17:06:09.532Z,91.50
2022-11-24T17:08:39.426Z,91.60
2022-11-24T17:11:12.148Z,91.50
2022-11-24T17:13:39.590Z,91.60
2022-11-24T17:16:17.235Z,91.50
2022-11-24T17:18:44.950Z,91.80
2022-11-24T17:21:14.949Z,92.00
2022-11-24T17:23:42.570Z,91.90
2022-11-24T17:26:14.945Z,91.80
2022-11-24T17:28:42.907Z,91.70
2022-11-24T17:31:24.915Z,91.50
2022-11-24T17:33:58.824Z,91.60
2022-11-24T17:36:27.093Z,91.60
2022-11-24T17:38:54.520Z,91.60
2022-11-24T17:41:22.524Z,91.50
2022-11-24T17:43:50.825Z,91.70
2022-11-24T17:46:18.222Z,91.80
2022-11-24T17:48:46.699Z,91.70
2022-11-24T17:51:22.287Z,91.80
2022-11-24T17:53:52.215Z,91.90
2022-11-24T17:56:25.050Z,92.00
2022-11-24T17:58:54.992Z,92.20
2022-11-24T18:01:22.507Z,92.90
2022-11-24T18:03:53.497Z,92.90
2022-11-24T18:06:24.156Z,93.20
2022-11-24T18:08:52.723Z,94.00
2022-11-24T18:11:32.226Z,93.80
2022-11-24T18:14:02.666Z,94.20
2022-11-24T18:16:34.683Z,93.80
2022-11-24T18:19:10.711Z,93.80
2022-11-24T18:21:40.776Z,93.60
2022-11-24T18:24:10.137Z,93.60
2022-11-24T18:26:38.839Z,94.40
2022-11-24T18:29:06.472Z,94.50
2022-11-24T18:31:35.531Z,94.40
2022-11-24T18:34:05.494Z,94.30
2022-11-24T18:36:33.306Z,94.70
2022-11-24T18:39:02.270Z,94.60
2022-11-24T18:41:29.565Z,94.40
2022-11-24T18:43:56.866Z,94.20
2022-11-24T18:46:24.150Z,94.60
2022-11-24T18:48:53.328Z,94.50
2022-11-24T18:51:22.703Z,94.60
2022-11-24T18:53:58.345Z,94.90
2022-11-24T18:56:26.404Z,95.30
2022-11-24T18:58:55.230Z,95.50
2022-11-24T19:01:25.262Z,95.70
2022-11-24T19:03:55.061Z,95.60
2022-11-24T19:06:27.008Z,95.50
2022-11-24T19:08:55.428Z,95.30
2022-11-24T19:11:26.754Z,95.30
2022-11-24T19:13:54.325Z,95.20
2022-11-24T19:16:22.987Z,95.00
2022-11-24T19:18:54.040Z,95.00
2022-11-24T19:21:22.816Z,94.80
2022-11-24T19:23:50.105Z,95.20
2022-11-24T19:26:18.105Z,95.20
2022-11-24T19:28:45.659Z,95.20
2022-11-24T19:31:15.042Z,95.10
2022-11-24T19:33:42.695Z,95.00
2022-11-24T19:36:20.492Z,94.80
2022-11-24T19:38:53.033Z,94.90
2022-11-24T19:41:22.282Z,95.00
2022-11-24T19:43:49.966Z,95.00
2022-11-24T19:46:19.054Z,94.90
2022-11-24T19:48:50.325Z,94.80
2022-11-24T19:51:20.295Z,94.60
2022-11-24T19:53:48.124Z,94.60
2022-11-24T19:56:26.340Z,94.70
2022-11-24T19:58:54.971Z,94.80
2022-11-24T20:01:25.324Z,94.90
2022-11-24T20:04:06.587Z,95.20
2022-11-24T20:06:37.119Z,95.20
2022-11-24T20:09:06.948Z,95.20
2022-11-24T20:11:34.279Z,95.10
2022-11-24T20:14:01.567Z,95.10
2022-11-24T20:16:31.440Z,95.00
2022-11-24T20:19:07.653Z,95.00
2022-11-24T20:21:36.484Z,94.90
2022-11-24T20:24:10.662Z,94.90
2022-11-24T20:26:41.097Z,94.90
2022-11-24T20:29:10.126Z,95.00
2022-11-24T20:31:40.343Z,95.10
2022-11-24T20:34:08.621Z,95.10
2022-11-24T20:36:38.875Z,95.10
2022-11-24T20:39:10.161Z,95.00
2022-11-24T20:41:39.340Z,94.90
2022-11-24T20:44:08.800Z,95.00
2022-11-24T20:46:37.917Z,95.10
2022-11-24T20:49:07.082Z,95.00
2022-11-24T20:51:37.487Z,95.00
2022-11-24T20:54:07.766Z,95.20
2022-11-24T20:56:37.340Z,95.30
2022-11-24T20:59:04.726Z,95.20
2022-11-24T21:01:35.215Z,95.10
2022-11-24T21:04:03.247Z,95.20
2022-11-24T21:06:30.867Z,95.30
2022-11-24T21:09:03.437Z,95.50
2022-11-24T21:11:32.272Z,95.70
2022-11-24T21:14:00.000Z,95.60
2022-11-24T21:16:32.401Z,95.80
2022-11-24T21:19:02.600Z,95.80
2022-11-24T21:21:34.212Z,96.00
2022-11-24T21:24:03.592Z,96.00
2022-11-24T21:26:31.186Z,95.80
2022-11-24T21:28:58.425Z,95.80
2022-11-24T21:31:25.665Z,96.00
2022-11-24T21:33:54.622Z,96.00
2022-11-24T21:36:24.387Z,95.90
2022-11-24T21:38:57.252Z,95.80
2022-11-24T21:41:27.051Z,95.90
2022-11-24T21:43:58.856Z,95.90
2022-11-24T21:46:25.975Z,96.00
2022-11-24T21:48:54.214Z,96.00
2022-11-24T21:51:22.014Z,95.90
2022-11-24T21:53:49.232Z,95.90
2022-11-24T21:56:18.752Z,95.90
2022-11-24T21:58:50.527Z,96.00
2022-11-24T22:01:19.801Z,96.00
2022-11-24T22:03:47.383Z,96.10
2022-11-24T22:06:16.795Z,96.40
2022-11-24T22:08:43.881Z,96.40
2022-11-24T22:11:29.188Z,96.50
2022-11-24T22:13:56.295Z,96.80
2022-11-24T22:16:24.923Z,96.70
2022-11-24T22:18:52.368Z,96.70
2022-11-24T22:21:33.530Z,96.50
2022-11-24T22:24:01.170Z,96.50
2022-11-24T22:26:29.450Z,96.50
2022-11-24T22:28:58.209Z,96.50
2022-11-24T22:31:30.843Z,96.50
2022-11-24T22:33:59.879Z,96.70
2022-11-24T22:36:29.675Z,96.90
2022-11-24T22:39:05.168Z,97.00
2022-11-24T22:41:34.620Z,96.80
2022-11-24T22:44:02.152Z,96.80
2022-11-24T22:46:31.107Z,96.80
2022-11-24T22:49:00.099Z,97.30
2022-11-24T22:51:29.857Z,97.40
2022-11-24T22:53:59.209Z,97.50
2022-11-24T22:56:32.361Z,97.20
2022-11-24T22:59:00.223Z,97.10
2022-11-24T23:01:28.584Z,97.70
2022-11-24T23:03:55.941Z,98.90
2022-11-24T23:06:29.309Z,99.00
2022-11-24T23:08:58.329Z,99.10
2022-11-24T23:11:41.499Z,99.10
2022-11-24T23:14:14.533Z,98.90
2022-11-24T23:16:42.496Z,98.70
2022-11-24T23:19:09.987Z,98.50
2022-11-24T23:21:40.853Z,98.40
2022-11-24T23:24:08.983Z,98.30
2022-11-24T23:26:39.307Z,98.20
2022-11-24T23:29:07.641Z,98.80
2022-11-24T23:31:35.145Z,98.60
2022-11-24T23:34:04.063Z,98.70
2022-11-24T23:36:32.329Z,98.60
2022-11-24T23:39:07.657Z,98.80
2022-11-24T23:41:35.148Z,98.80
2022-11-24T23:44:02.578Z,99.90
2022-11-24T23:46:30.391Z,99.80
2022-11-24T23:48:58.099Z,99.70
2022-11-24T23:51:30.373Z,99.60
2022-11-24T23:53:58.752Z,99.60
2022-11-24T23:56:33.096Z,99.60
2022-11-24T23:59:01.962Z,99.50
